createdAt,value
2019-03-23T00:00:34.875Z,7.03
2019-03-23T00:01:34.892Z,6.97
2019-03-23T00:02:34.858Z,6.98
2019-03-23T00:03:34.858Z,6.84
2019-03-23T00:04:34.849Z,6.95
2019-03-23T00:05:34.837Z,6.88
2019-03-23T00:06:34.839Z,6.85
2019-03-23T00:07:34.815Z,6.80
2019-03-23T00:08:34.814Z,6.87
2019-03-23T00:09:34.784Z,6.85
2019-03-23T00:10:34.780Z,6.88
2019-03-23T00:11:34.772Z,6.87
2019-03-23T00:12:34.760Z,6.80
2019-03-23T00:13:34.763Z,6.71
2019-03-23T00:14:34.731Z,6.79
2019-03-23T00:15:34.709Z,6.66
2019-03-23T00:16:34.702Z,6.67
2019-03-23T00:17:34.716Z,6.66
2019-03-23T00:18:34.683Z,6.70
2019-03-23T00:19:34.677Z,6.67
2019-03-23T00:20:34.662Z,6.67
2019-03-23T00:21:34.662Z,6.62
2019-03-23T00:22:34.656Z,6.62
2019-03-23T00:23:34.622Z,6.71
2019-03-23T00:24:34.618Z,6.67
2019-03-23T00:25:34.605Z,6.62
2019-03-23T00:26:34.596Z,6.62
2019-03-23T00:27:34.601Z,6.64
2019-03-23T00:28:34.571Z,6.55
2019-03-23T00:29:34.557Z,6.64
2019-03-23T00:30:34.546Z,6.56
2019-03-23T00:31:34.541Z,6.61
2019-03-23T00:32:34.546Z,6.59
2019-03-23T00:33:34.527Z,6.52
2019-03-23T00:34:34.511Z,6.49
2019-03-23T00:35:34.493Z,6.36
2019-03-23T00:36:41.419Z,6.37
2019-03-23T00:37:35.513Z,6.28
2019-03-23T00:38:34.476Z,6.38
2019-03-23T00:39:34.448Z,6.37
2019-03-23T00:40:34.446Z,6.33
2019-03-23T00:41:34.459Z,6.38
2019-03-23T00:42:34.463Z,6.43
2019-03-23T00:43:34.426Z,6.34
2019-03-23T00:44:34.398Z,6.36
2019-03-23T00:45:34.389Z,6.34
2019-03-23T00:46:34.381Z,6.19
2019-03-23T00:47:34.382Z,6.15
2019-03-23T00:48:34.422Z,6.27
2019-03-23T00:49:34.343Z,6.21
2019-03-23T00:50:34.330Z,6.22
2019-03-23T00:51:34.325Z,6.34
2019-03-23T00:52:34.321Z,6.36
2019-03-23T00:53:34.322Z,6.31
2019-03-23T00:54:34.283Z,6.22
2019-03-23T00:55:34.281Z,6.30
2019-03-23T00:56:34.269Z,6.31
2019-03-23T00:57:34.257Z,6.34
2019-03-23T00:58:34.274Z,6.31
2019-03-23T00:59:34.226Z,6.31
2019-03-23T01:00:34.232Z,6.18
2019-03-23T01:01:34.224Z,6.25
2019-03-23T01:02:34.197Z,6.21
2019-03-23T01:03:34.204Z,6.12
2019-03-23T01:04:34.174Z,6.06
2019-03-23T01:05:34.160Z,6.04
2019-03-23T01:06:34.161Z,6.06
2019-03-23T01:07:34.142Z,6.00
2019-03-23T01:08:34.157Z,5.94
2019-03-23T01:09:34.151Z,5.94
2019-03-23T01:10:34.117Z,5.93
2019-03-23T01:11:34.103Z,5.93
2019-03-23T01:12:34.087Z,5.90
2019-03-23T01:13:34.088Z,5.83
2019-03-23T01:14:34.118Z,5.93
2019-03-23T01:15:34.057Z,5.82
2019-03-23T01:16:34.042Z,5.91
2019-03-23T01:17:34.053Z,5.85
2019-03-23T01:18:34.054Z,5.82
2019-03-23T01:19:34.008Z,5.79
2019-03-23T01:20:33.996Z,5.74
2019-03-23T01:21:33.992Z,5.81
2019-03-23T01:22:33.971Z,5.75
2019-03-23T01:23:33.976Z,5.75
2019-03-23T01:24:33.986Z,5.72
2019-03-23T01:25:33.978Z,5.76
2019-03-23T01:26:33.934Z,5.75
2019-03-23T01:27:33.930Z,5.76
2019-03-23T01:28:33.938Z,5.75
2019-03-23T01:29:33.957Z,5.81
2019-03-23T01:30:33.894Z,5.74
2019-03-23T01:31:33.873Z,5.78
2019-03-23T01:32:33.858Z,5.75
2019-03-23T01:33:33.873Z,5.74
2019-03-23T01:34:33.872Z,5.74
2019-03-23T01:35:33.831Z,5.76
2019-03-23T01:36:33.825Z,5.81
2019-03-23T01:37:33.833Z,5.78
2019-03-23T01:38:33.796Z,5.79
2019-03-23T01:39:33.805Z,5.78
2019-03-23T01:40:33.783Z,5.76
2019-03-23T01:41:33.774Z,5.74
2019-03-23T01:42:33.750Z,5.72
2019-03-23T01:43:33.746Z,5.75
2019-03-23T01:44:33.748Z,5.61
2019-03-23T01:45:33.739Z,5.72
2019-03-23T01:46:33.704Z,5.65
2019-03-23T01:47:33.699Z,5.65
2019-03-23T01:48:33.681Z,5.63
2019-03-23T01:49:33.690Z,5.53
2019-03-23T01:50:33.682Z,5.56
2019-03-23T01:51:33.649Z,5.51
2019-03-23T01:52:33.664Z,5.48
2019-03-23T01:53:33.630Z,5.48
2019-03-23T01:54:33.635Z,5.49
2019-03-23T01:55:33.626Z,5.46
2019-03-23T01:56:33.634Z,5.51
2019-03-23T01:57:33.581Z,5.46
2019-03-23T01:58:33.571Z,5.39
2019-03-23T01:59:33.561Z,5.49
2019-03-23T02:00:33.604Z,5.46
2019-03-23T02:01:33.545Z,5.38
2019-03-23T02:02:33.527Z,5.42
2019-03-23T02:03:33.519Z,5.43
2019-03-23T02:04:33.555Z,5.40
2019-03-23T02:05:33.517Z,5.33
2019-03-23T02:06:33.489Z,5.38
2019-03-23T02:07:33.472Z,5.42
2019-03-23T02:08:33.465Z,5.39
2019-03-23T02:09:33.462Z,5.33
2019-03-23T02:10:33.463Z,5.35
2019-03-23T02:11:33.444Z,5.36
2019-03-23T02:12:33.417Z,5.31
2019-03-23T02:13:33.407Z,5.27
2019-03-23T02:14:33.401Z,5.22
2019-03-23T02:15:33.406Z,5.22
2019-03-23T02:16:33.404Z,5.22
2019-03-23T02:17:33.360Z,5.18
2019-03-23T02:18:33.351Z,5.17
2019-03-23T02:19:33.349Z,5.10
2019-03-23T02:20:33.328Z,5.22
2019-03-23T02:21:33.336Z,5.20
2019-03-23T02:22:33.305Z,5.15
2019-03-23T02:23:33.330Z,5.09
2019-03-23T02:24:33.285Z,5.21
2019-03-23T02:25:33.279Z,5.07
2019-03-23T02:26:33.289Z,5.10
2019-03-23T02:27:33.260Z,5.15
2019-03-23T02:28:33.252Z,5.06
2019-03-23T02:29:33.227Z,5.07
2019-03-23T02:30:33.220Z,5.03
2019-03-23T02:31:33.232Z,5.02
2019-03-23T02:32:33.202Z,5.03
2019-03-23T02:33:33.187Z,4.96
2019-03-23T02:34:33.178Z,4.99
2019-03-23T02:35:33.166Z,4.99
2019-03-23T02:36:33.184Z,4.97
2019-03-23T02:37:33.145Z,4.82
2019-03-23T02:38:33.129Z,4.86
2019-03-23T02:39:33.118Z,4.80
2019-03-23T02:40:33.138Z,4.88
2019-03-23T02:41:33.100Z,4.85
2019-03-23T02:42:33.115Z,4.78
2019-03-23T02:43:33.078Z,4.77
2019-03-23T02:44:33.065Z,4.77
2019-03-23T02:45:33.049Z,4.66
2019-03-23T02:46:33.055Z,4.65
2019-03-23T02:47:33.055Z,4.59
2019-03-23T02:48:33.105Z,4.63
2019-03-23T02:49:33.006Z,4.58
2019-03-23T02:50:32.995Z,4.63
2019-03-23T02:51:32.987Z,4.51
2019-03-23T02:52:33.050Z,4.54
2019-03-23T02:53:32.967Z,4.54
2019-03-23T02:54:32.973Z,4.54
2019-03-23T02:55:32.938Z,4.55
2019-03-23T02:56:32.933Z,4.55
2019-03-23T02:57:32.941Z,4.55
2019-03-23T02:58:32.908Z,4.58
2019-03-23T02:59:32.894Z,4.54
2019-03-23T03:00:32.940Z,4.48
2019-03-23T03:01:32.875Z,4.51
2019-03-23T03:02:32.886Z,4.47
2019-03-23T03:03:32.856Z,4.41
2019-03-23T03:04:32.880Z,4.47
2019-03-23T03:05:32.829Z,4.47
2019-03-23T03:06:32.827Z,4.54
2019-03-23T03:07:41.870Z,4.37
2019-03-23T03:08:33.799Z,4.48
2019-03-23T03:09:32.790Z,4.29
2019-03-23T03:10:32.793Z,4.29
2019-03-23T03:11:32.768Z,4.30
2019-03-23T03:12:32.770Z,4.24
2019-03-23T03:13:32.791Z,4.18
2019-03-23T03:14:32.740Z,4.18
2019-03-23T03:15:32.740Z,4.14
2019-03-23T03:16:32.711Z,4.15
2019-03-23T03:17:32.736Z,4.14
2019-03-23T03:18:32.708Z,4.18
2019-03-23T03:19:32.698Z,4.22
2019-03-23T03:20:32.676Z,4.20
2019-03-23T03:21:32.671Z,4.11
2019-03-23T03:22:32.652Z,4.11
2019-03-23T03:23:32.675Z,4.11
2019-03-23T03:24:32.632Z,4.11
2019-03-23T03:25:32.626Z,4.12
2019-03-23T03:26:32.606Z,4.15
2019-03-23T03:27:32.593Z,4.16
2019-03-23T03:28:32.611Z,4.16
2019-03-23T03:29:32.586Z,4.08
2019-03-23T03:30:32.568Z,4.18
2019-03-23T03:31:32.556Z,4.26
2019-03-23T03:32:32.549Z,4.14
2019-03-23T03:33:32.597Z,4.18
2019-03-23T03:34:32.527Z,4.23
2019-03-23T03:35:32.519Z,4.11
2019-03-23T03:36:32.502Z,4.15
2019-03-23T03:37:32.486Z,4.08
2019-03-23T03:38:32.551Z,4.22
2019-03-23T03:39:32.480Z,4.11
2019-03-23T03:40:32.466Z,4.12
2019-03-23T03:41:32.451Z,4.09
2019-03-23T03:42:32.449Z,4.05
2019-03-23T03:43:32.442Z,3.97
2019-03-23T03:44:32.418Z,3.97
2019-03-23T03:45:32.432Z,3.83
2019-03-23T03:46:32.388Z,3.90
2019-03-23T03:47:32.382Z,3.84
2019-03-23T03:48:32.392Z,3.79
2019-03-23T03:49:32.381Z,3.86
2019-03-23T03:50:32.351Z,3.80
2019-03-23T03:51:32.351Z,3.86
2019-03-23T03:52:32.329Z,3.86
2019-03-23T03:53:32.315Z,3.83
2019-03-23T03:54:32.321Z,3.80
2019-03-23T03:55:32.294Z,3.80
2019-03-23T03:56:32.350Z,3.73
2019-03-23T03:57:32.282Z,3.78
2019-03-23T03:58:32.266Z,3.83
2019-03-23T03:59:32.280Z,3.83
2019-03-23T04:00:32.242Z,3.87
2019-03-23T04:01:32.231Z,3.87
2019-03-23T04:02:32.219Z,3.86
2019-03-23T04:03:32.209Z,3.86
2019-03-23T04:04:32.216Z,3.80
2019-03-23T04:05:32.185Z,3.83
2019-03-23T04:06:32.177Z,3.78
2019-03-23T04:07:32.211Z,3.84
2019-03-23T04:08:32.160Z,3.86
2019-03-23T04:09:32.175Z,3.83
2019-03-23T04:10:32.138Z,3.80
2019-03-23T04:11:32.129Z,3.70
2019-03-23T04:12:32.123Z,3.80
2019-03-23T04:13:32.113Z,3.70
2019-03-23T04:14:32.164Z,3.73
2019-03-23T04:15:32.105Z,3.78
2019-03-23T04:16:32.065Z,3.75
2019-03-23T04:17:32.065Z,3.65
2019-03-23T04:18:32.056Z,3.72
2019-03-23T04:19:32.030Z,3.68
2019-03-23T04:20:32.046Z,3.70
2019-03-23T04:21:32.014Z,3.69
2019-03-23T04:22:31.998Z,3.72
2019-03-23T04:23:31.985Z,3.68
2019-03-23T04:24:31.978Z,3.73
2019-03-23T04:25:31.986Z,3.75
2019-03-23T04:26:31.967Z,3.73
2019-03-23T04:27:31.945Z,3.72
2019-03-23T04:28:31.939Z,3.72
2019-03-23T04:29:31.922Z,3.72
2019-03-23T04:30:31.928Z,3.73
2019-03-23T04:31:31.903Z,3.80
2019-03-23T04:32:31.894Z,3.76
2019-03-23T04:33:31.877Z,3.78
2019-03-23T04:34:31.869Z,3.73
2019-03-23T04:35:31.883Z,3.72
2019-03-23T04:36:31.914Z,3.79
2019-03-23T04:37:31.834Z,3.70
2019-03-23T04:38:31.828Z,3.76
2019-03-23T04:39:31.811Z,3.80
2019-03-23T04:40:31.831Z,3.75
2019-03-23T04:41:31.789Z,3.76
2019-03-23T04:42:31.783Z,3.72
2019-03-23T04:43:31.769Z,3.80
2019-03-23T04:44:31.774Z,3.79
2019-03-23T04:45:31.763Z,3.79
2019-03-23T04:46:31.733Z,3.70
2019-03-23T04:47:31.728Z,3.83
2019-03-23T04:48:31.712Z,3.70
2019-03-23T04:49:31.701Z,3.76
2019-03-23T04:50:31.731Z,3.73
2019-03-23T04:51:31.679Z,3.80
2019-03-23T04:52:31.669Z,3.70
2019-03-23T04:53:31.659Z,3.75
2019-03-23T04:54:31.655Z,3.72
2019-03-23T04:55:31.650Z,3.61
2019-03-23T04:56:31.640Z,3.68
2019-03-23T04:57:31.615Z,3.65
2019-03-23T04:58:31.616Z,3.65
2019-03-23T04:59:31.595Z,3.72
2019-03-23T05:00:31.609Z,3.68
2019-03-23T05:01:31.592Z,3.61
2019-03-23T05:02:31.570Z,3.57
2019-03-23T05:03:31.549Z,3.60
2019-03-23T05:04:31.544Z,3.65
2019-03-23T05:05:31.528Z,3.51
2019-03-23T05:06:31.542Z,3.52
2019-03-23T05:07:31.505Z,3.39
2019-03-23T05:08:33.649Z,3.36
2019-03-23T05:09:31.483Z,3.40
2019-03-23T05:10:31.476Z,3.35
2019-03-23T05:11:31.491Z,3.36
2019-03-23T05:12:31.469Z,3.43
2019-03-23T05:13:31.469Z,3.29
2019-03-23T05:14:31.450Z,3.42
2019-03-23T05:15:31.460Z,3.36
2019-03-23T05:16:31.428Z,3.29
2019-03-23T05:17:31.402Z,3.26
2019-03-23T05:18:31.397Z,3.28
2019-03-23T05:19:31.392Z,3.26
2019-03-23T05:20:31.368Z,3.24
2019-03-23T05:21:31.371Z,3.23
2019-03-23T05:22:31.365Z,3.21
2019-03-23T05:23:31.340Z,3.15
2019-03-23T05:24:31.333Z,3.17
2019-03-23T05:25:31.315Z,3.13
2019-03-23T05:26:31.319Z,3.08
2019-03-23T05:27:31.352Z,3.13
2019-03-23T05:28:31.281Z,3.06
2019-03-23T05:29:31.265Z,3.23
2019-03-23T05:30:31.259Z,3.23
2019-03-23T05:31:31.286Z,3.21
2019-03-23T05:32:31.254Z,3.20
2019-03-23T05:33:31.222Z,3.21
2019-03-23T05:34:31.241Z,3.28
2019-03-23T05:35:31.206Z,3.21
2019-03-23T05:36:31.193Z,3.24
2019-03-23T05:37:31.223Z,3.24
2019-03-23T05:38:31.177Z,3.31
2019-03-23T05:39:31.161Z,3.28
2019-03-23T05:40:31.148Z,3.28
2019-03-23T05:41:31.148Z,3.26
2019-03-23T05:42:31.130Z,3.20
2019-03-23T05:43:31.136Z,3.28
2019-03-23T05:44:31.105Z,3.29
2019-03-23T05:45:31.093Z,3.29
2019-03-23T05:46:31.080Z,3.23
2019-03-23T05:47:31.114Z,3.36
2019-03-23T05:48:31.099Z,3.29
2019-03-23T05:49:31.047Z,3.39
2019-03-23T05:50:31.042Z,3.35
2019-03-23T05:51:31.029Z,3.35
2019-03-23T05:52:31.075Z,3.39
2019-03-23T05:53:31.029Z,3.40
2019-03-23T05:54:30.993Z,3.54
2019-03-23T05:55:30.989Z,3.57
2019-03-23T05:56:30.990Z,3.54
2019-03-23T05:57:30.962Z,3.65
2019-03-23T05:58:30.976Z,3.70
2019-03-23T05:59:30.948Z,3.66
2019-03-23T06:00:30.932Z,3.72
2019-03-23T06:01:30.924Z,3.83
2019-03-23T06:02:30.904Z,3.79
2019-03-23T06:03:30.910Z,3.84
2019-03-23T06:04:30.883Z,3.86
2019-03-23T06:05:30.905Z,3.88
2019-03-23T06:06:30.862Z,3.97
2019-03-23T06:07:30.852Z,3.98
2019-03-23T06:08:30.864Z,4.05
2019-03-23T06:09:30.833Z,4.02
2019-03-23T06:10:30.819Z,4.06
2019-03-23T06:11:30.820Z,4.12
2019-03-23T06:12:30.795Z,4.29
2019-03-23T06:13:30.804Z,4.26
2019-03-23T06:14:30.776Z,4.32
2019-03-23T06:15:30.775Z,4.34
2019-03-23T06:16:30.756Z,4.44
2019-03-23T06:17:30.751Z,4.42
2019-03-23T06:18:30.747Z,4.47
2019-03-23T06:19:30.745Z,4.60
2019-03-23T06:20:30.711Z,4.60
2019-03-23T06:21:30.699Z,4.63
2019-03-23T06:22:30.705Z,4.80
2019-03-23T06:23:30.688Z,4.78
2019-03-23T06:24:30.716Z,4.94
2019-03-23T06:25:30.658Z,4.97
2019-03-23T06:26:30.648Z,4.97
2019-03-23T06:27:30.638Z,5.07
2019-03-23T06:28:30.626Z,5.03
2019-03-23T06:29:30.637Z,5.18
2019-03-23T06:30:30.615Z,5.17
2019-03-23T06:31:30.597Z,5.27
2019-03-23T06:32:30.612Z,5.31
2019-03-23T06:33:30.587Z,5.35
2019-03-23T06:34:30.583Z,5.30
2019-03-23T06:35:30.553Z,5.30
2019-03-23T06:36:30.545Z,5.42
2019-03-23T06:37:30.533Z,5.53
2019-03-23T06:38:30.513Z,5.60
2019-03-23T06:39:30.532Z,5.63
2019-03-23T06:40:30.494Z,5.65
2019-03-23T06:41:30.480Z,5.78
2019-03-23T06:42:30.471Z,5.78
2019-03-23T06:43:30.476Z,5.81
2019-03-23T06:44:32.437Z,5.96
2019-03-23T06:45:30.452Z,5.96
2019-03-23T06:46:30.426Z,6.03
2019-03-23T06:47:30.422Z,6.08
2019-03-23T06:48:30.405Z,6.17
2019-03-23T06:49:30.392Z,6.27
2019-03-23T06:50:30.416Z,6.40
2019-03-23T06:51:30.370Z,6.52
2019-03-23T06:52:30.363Z,6.52
2019-03-23T06:53:30.349Z,6.62
2019-03-23T06:54:30.339Z,6.76
2019-03-23T06:55:30.350Z,6.88
2019-03-23T06:56:30.312Z,7.02
2019-03-23T06:57:30.315Z,7.02
2019-03-23T06:58:30.351Z,7.17
2019-03-23T06:59:30.288Z,7.13
2019-03-23T07:00:30.293Z,7.25
2019-03-23T07:01:30.270Z,7.35
2019-03-23T07:02:30.247Z,7.52
2019-03-23T07:03:30.245Z,7.55
2019-03-23T07:04:30.228Z,7.68
2019-03-23T07:05:30.236Z,7.74
2019-03-23T07:06:30.204Z,7.80
2019-03-23T07:07:30.198Z,7.92
2019-03-23T07:08:32.233Z,8.00
2019-03-23T07:09:30.171Z,8.08
2019-03-23T07:10:30.198Z,8.12
2019-03-23T07:11:30.148Z,8.26
2019-03-23T07:12:30.142Z,8.34
2019-03-23T07:13:30.126Z,8.33
2019-03-23T07:14:30.125Z,8.48
2019-03-23T07:15:30.105Z,8.59
2019-03-23T07:16:30.143Z,8.59
2019-03-23T07:17:30.083Z,8.63
2019-03-23T07:18:30.077Z,8.79
2019-03-23T07:19:30.065Z,8.83
2019-03-23T07:20:30.059Z,8.87
2019-03-23T07:21:30.064Z,9.01
2019-03-23T07:22:30.028Z,9.17
2019-03-23T07:23:30.021Z,9.28
2019-03-23T07:24:30.008Z,9.32
2019-03-23T07:25:29.996Z,9.46
2019-03-23T07:26:30.008Z,9.48
2019-03-23T07:27:29.973Z,9.69
2019-03-23T07:28:29.963Z,9.68
2019-03-23T07:29:29.962Z,9.69
2019-03-23T07:30:29.941Z,9.74
2019-03-23T07:31:29.952Z,9.75
2019-03-23T07:32:29.920Z,9.75
2019-03-23T07:33:29.914Z,9.72
2019-03-23T07:34:29.920Z,9.69
2019-03-23T07:35:29.889Z,9.81
2019-03-23T07:36:29.897Z,9.86
2019-03-23T07:37:29.867Z,9.84
2019-03-23T07:38:29.859Z,9.96
2019-03-23T07:39:30.620Z,10.08
2019-03-23T07:40:29.830Z,10.23
2019-03-23T07:41:29.862Z,10.36
2019-03-23T07:42:29.806Z,10.41
2019-03-23T07:43:29.798Z,10.51
2019-03-23T07:44:29.794Z,10.63
2019-03-23T07:45:29.784Z,10.67
2019-03-23T07:46:29.790Z,10.73
2019-03-23T07:47:29.796Z,10.76
2019-03-23T07:48:29.746Z,10.79
2019-03-23T07:49:29.783Z,10.73
2019-03-23T07:50:29.717Z,10.91
2019-03-23T07:51:29.714Z,10.91
2019-03-23T07:52:29.727Z,11.02
2019-03-23T07:53:29.692Z,11.04
2019-03-23T07:54:29.679Z,11.17
2019-03-23T07:55:29.666Z,11.17
2019-03-23T07:56:29.666Z,11.25
2019-03-23T07:57:29.672Z,11.24
2019-03-23T07:58:29.636Z,11.36
2019-03-23T07:59:29.623Z,11.37
2019-03-23T08:00:29.615Z,11.42
2019-03-23T08:01:29.599Z,11.57
2019-03-23T08:02:29.589Z,11.72
2019-03-23T08:03:29.609Z,11.86
2019-03-23T08:04:29.572Z,11.83
2019-03-23T08:05:29.557Z,11.99
2019-03-23T08:06:29.562Z,12.02
2019-03-23T08:07:29.576Z,12.16
2019-03-23T08:08:29.526Z,12.19
2019-03-23T08:09:37.421Z,12.12
2019-03-23T08:10:30.503Z,12.23
2019-03-23T08:11:29.508Z,12.31
2019-03-23T08:12:29.498Z,12.39
2019-03-23T08:13:29.572Z,12.46
2019-03-23T08:14:29.457Z,12.47
2019-03-23T08:15:29.444Z,12.59
2019-03-23T08:16:29.437Z,12.65
2019-03-23T08:17:29.446Z,12.65
2019-03-23T08:18:29.446Z,12.68
2019-03-23T08:19:29.404Z,12.67
2019-03-23T08:20:29.389Z,12.67
2019-03-23T08:21:29.389Z,12.71
2019-03-23T08:22:29.372Z,12.53
2019-03-23T08:23:29.377Z,12.60
2019-03-23T08:24:29.350Z,12.64
2019-03-23T08:25:29.335Z,12.70
2019-03-23T08:26:29.328Z,12.68
2019-03-23T08:27:29.315Z,12.71
2019-03-23T08:28:29.315Z,12.77
2019-03-23T08:29:29.291Z,12.87
2019-03-23T08:30:29.282Z,13.00
2019-03-23T08:31:29.284Z,13.15
2019-03-23T08:32:29.261Z,13.23
2019-03-23T08:33:29.260Z,13.30
2019-03-23T08:34:29.235Z,13.33
2019-03-23T08:35:29.232Z,13.48
2019-03-23T08:36:29.209Z,13.44
2019-03-23T08:37:29.198Z,13.42
2019-03-23T08:38:29.233Z,13.42
2019-03-23T08:39:29.205Z,13.57
2019-03-23T08:40:29.168Z,13.64
2019-03-23T08:41:29.157Z,13.63
2019-03-23T08:42:29.145Z,13.75
2019-03-23T08:43:29.134Z,13.88
2019-03-23T08:44:31.504Z,13.87
2019-03-23T08:45:29.113Z,13.99
2019-03-23T08:46:29.117Z,14.15
2019-03-23T08:47:29.095Z,14.21
2019-03-23T08:48:29.092Z,14.18
2019-03-23T08:49:29.092Z,14.28
2019-03-23T08:50:29.061Z,14.29
2019-03-23T08:51:29.055Z,14.35
2019-03-23T08:52:29.105Z,14.27
2019-03-23T08:53:29.021Z,14.40
2019-03-23T08:54:29.046Z,14.35
2019-03-23T08:55:29.051Z,14.42
2019-03-23T08:56:29.007Z,14.46
2019-03-23T08:57:28.990Z,14.50
2019-03-23T08:58:28.984Z,14.46
2019-03-23T08:59:29.003Z,14.50
2019-03-23T09:00:28.992Z,14.43
2019-03-23T09:01:28.936Z,14.40
2019-03-23T09:02:28.926Z,14.42
2019-03-23T09:03:28.914Z,14.40
2019-03-23T09:04:28.911Z,14.52
2019-03-23T09:05:28.936Z,14.58
2019-03-23T09:06:28.887Z,14.77
2019-03-23T09:07:28.877Z,14.92
2019-03-23T09:08:28.902Z,14.91
2019-03-23T09:09:28.853Z,15.17
2019-03-23T09:10:28.853Z,15.34
2019-03-23T09:11:28.828Z,15.41
2019-03-23T09:12:28.854Z,15.51
2019-03-23T09:13:28.809Z,15.51
2019-03-23T09:14:28.793Z,15.67
2019-03-23T09:15:28.803Z,15.60
2019-03-23T09:16:28.786Z,15.65
2019-03-23T09:17:28.759Z,15.74
2019-03-23T09:18:28.756Z,15.62
2019-03-23T09:19:28.761Z,15.64
2019-03-23T09:20:29.699Z,15.60
2019-03-23T09:21:28.728Z,15.53
2019-03-23T09:22:28.710Z,15.43
2019-03-23T09:23:28.695Z,15.43
2019-03-23T09:24:28.694Z,15.44
2019-03-23T09:25:28.688Z,15.59
2019-03-23T09:26:28.664Z,15.62
2019-03-23T09:27:28.648Z,15.69
2019-03-23T09:28:28.649Z,15.80
2019-03-23T09:29:28.635Z,15.93
2019-03-23T09:30:28.647Z,16.02
2019-03-23T09:31:28.632Z,16.21
2019-03-23T09:32:28.599Z,16.23
2019-03-23T09:33:28.594Z,16.38
2019-03-23T09:34:28.589Z,16.48
2019-03-23T09:35:28.566Z,16.48
2019-03-23T09:36:28.578Z,16.63
2019-03-23T09:37:28.540Z,16.71
2019-03-23T09:38:28.535Z,16.75
2019-03-23T09:39:28.526Z,16.81
2019-03-23T09:40:28.504Z,16.86
2019-03-23T09:41:28.535Z,16.67
2019-03-23T09:42:28.491Z,16.75
2019-03-23T09:43:28.486Z,16.68
2019-03-23T09:44:28.461Z,16.58
2019-03-23T09:45:28.454Z,16.49
2019-03-23T09:46:28.470Z,16.52
2019-03-23T09:47:28.433Z,16.39
2019-03-23T09:48:28.427Z,16.41
2019-03-23T09:49:28.420Z,16.64
2019-03-23T09:50:28.397Z,16.63
2019-03-23T09:51:29.376Z,16.78
2019-03-23T09:52:28.413Z,16.86
2019-03-23T09:53:28.373Z,16.96
2019-03-23T09:54:28.357Z,16.94
2019-03-23T09:55:28.778Z,17.03
2019-03-23T09:56:28.329Z,17.08
2019-03-23T09:57:28.336Z,17.03
2019-03-23T09:58:28.316Z,17.06
2019-03-23T09:59:28.300Z,17.06
2019-03-23T10:00:28.342Z,17.14
2019-03-23T10:01:28.276Z,17.14
2019-03-23T10:02:28.283Z,17.21
2019-03-23T10:03:28.251Z,17.21
2019-03-23T10:04:28.247Z,17.33
2019-03-23T10:05:28.236Z,17.34
2019-03-23T10:06:28.229Z,17.25
2019-03-23T10:07:28.241Z,17.38
2019-03-23T10:08:28.202Z,17.43
2019-03-23T10:09:28.190Z,17.55
2019-03-23T10:10:28.214Z,17.63
2019-03-23T10:11:28.164Z,17.74
2019-03-23T10:12:28.178Z,17.78
2019-03-23T10:13:28.148Z,17.90
2019-03-23T10:14:28.148Z,17.84
2019-03-23T10:15:28.143Z,17.84
2019-03-23T10:16:28.117Z,17.89
2019-03-23T10:17:28.098Z,17.90
2019-03-23T10:18:28.128Z,17.84
2019-03-23T10:19:28.076Z,17.82
2019-03-23T10:20:28.080Z,17.87
2019-03-23T10:21:28.061Z,18.05
2019-03-23T10:22:28.061Z,18.07
2019-03-23T10:23:28.048Z,18.02
2019-03-23T10:24:28.062Z,18.11
2019-03-23T10:25:28.017Z,18.15
2019-03-23T10:26:28.001Z,18.23
2019-03-23T10:27:28.001Z,18.35
2019-03-23T10:28:28.023Z,18.50
2019-03-23T10:29:27.965Z,18.66
2019-03-23T10:30:27.973Z,18.70
2019-03-23T10:31:27.950Z,18.82
2019-03-23T10:32:27.931Z,18.85
2019-03-23T10:33:28.003Z,18.90
2019-03-23T10:34:27.948Z,18.90
2019-03-23T10:35:27.900Z,18.95
2019-03-23T10:36:27.895Z,19.06
2019-03-23T10:37:27.883Z,18.98
2019-03-23T10:38:28.061Z,19.08
2019-03-23T10:39:27.876Z,19.08
2019-03-23T10:40:32.341Z,19.21
2019-03-23T10:41:28.835Z,19.22
2019-03-23T10:42:27.822Z,19.28
2019-03-23T10:43:27.846Z,19.21
2019-03-23T10:44:27.824Z,19.22
2019-03-23T10:45:27.790Z,19.21
2019-03-23T10:46:27.806Z,19.28
2019-03-23T10:47:27.845Z,19.23
2019-03-23T10:48:27.791Z,19.29
2019-03-23T10:49:27.774Z,19.39
2019-03-23T10:50:27.737Z,19.39
2019-03-23T10:51:27.728Z,19.48
2019-03-23T10:52:27.713Z,19.62
2019-03-23T10:53:27.704Z,19.62
2019-03-23T10:54:27.721Z,19.59
2019-03-23T10:55:27.694Z,19.66
2019-03-23T10:56:27.672Z,19.62
2019-03-23T10:57:27.673Z,19.55
2019-03-23T10:58:27.645Z,19.50
2019-03-23T10:59:28.090Z,19.50
2019-03-23T11:00:27.630Z,19.55
2019-03-23T11:01:27.622Z,19.59
2019-03-23T11:02:27.615Z,19.61
2019-03-23T11:03:27.589Z,19.63
2019-03-23T11:04:27.594Z,19.76
2019-03-23T11:05:27.568Z,19.76
2019-03-23T11:06:27.559Z,19.94
2019-03-23T11:07:27.561Z,20.01
2019-03-23T11:08:27.534Z,20.06
2019-03-23T11:09:27.548Z,20.18
2019-03-23T11:10:27.526Z,20.23
2019-03-23T11:11:27.504Z,20.24
2019-03-23T11:12:27.490Z,20.41
2019-03-23T11:13:27.492Z,20.35
2019-03-23T11:14:27.489Z,20.39
2019-03-23T11:15:27.469Z,20.39
2019-03-23T11:16:27.453Z,20.32
2019-03-23T11:17:27.447Z,20.08
2019-03-23T11:18:27.424Z,20.05
2019-03-23T11:19:27.435Z,20.08
2019-03-23T11:20:27.407Z,20.06
2019-03-23T11:21:27.394Z,20.23
2019-03-23T11:22:27.393Z,20.17
2019-03-23T11:23:27.390Z,20.29
2019-03-23T11:24:27.380Z,20.29
2019-03-23T11:25:27.368Z,20.31
2019-03-23T11:26:28.201Z,20.32
2019-03-23T11:27:27.337Z,20.41
2019-03-23T11:28:27.336Z,20.33
2019-03-23T11:29:27.318Z,20.47
2019-03-23T11:30:27.317Z,20.52
2019-03-23T11:31:27.319Z,20.50
2019-03-23T11:32:27.270Z,20.51
2019-03-23T11:33:27.257Z,20.41
2019-03-23T11:34:27.271Z,20.57
2019-03-23T11:35:27.254Z,20.59
2019-03-23T11:36:27.227Z,20.59
2019-03-23T11:37:27.331Z,20.67
2019-03-23T11:38:27.215Z,20.87
2019-03-23T11:39:27.210Z,21.21
2019-03-23T11:40:27.204Z,21.38
2019-03-23T11:41:27.190Z,21.42
2019-03-23T11:42:27.172Z,21.49
2019-03-23T11:43:27.158Z,21.50
2019-03-23T11:44:27.149Z,21.54
2019-03-23T11:45:27.180Z,21.42
2019-03-23T11:46:27.141Z,21.32
2019-03-23T11:47:27.126Z,21.14
2019-03-23T11:48:27.095Z,21.03
2019-03-23T11:49:27.092Z,21.01
2019-03-23T11:50:27.095Z,20.99
2019-03-23T11:51:27.075Z,20.99
2019-03-23T11:52:27.104Z,20.98
2019-03-23T11:53:27.063Z,21.09
2019-03-23T11:54:27.058Z,21.06
2019-03-23T11:55:27.048Z,21.07
2019-03-23T11:56:30.420Z,21.24
2019-03-23T11:57:27.029Z,21.31
2019-03-23T11:58:26.997Z,21.34
2019-03-23T11:59:26.980Z,21.47
2019-03-23T12:00:26.984Z,21.53
2019-03-23T12:01:27.024Z,21.56
2019-03-23T12:02:26.966Z,21.53
2019-03-23T12:03:26.942Z,21.53
2019-03-23T12:04:26.931Z,21.54
2019-03-23T12:05:26.921Z,21.67
2019-03-23T12:06:26.935Z,21.67
2019-03-23T12:07:26.888Z,21.59
2019-03-23T12:08:26.880Z,21.44
2019-03-23T12:09:26.868Z,21.54
2019-03-23T12:10:26.863Z,21.53
2019-03-23T12:11:26.865Z,21.52
2019-03-23T12:12:26.852Z,21.56
2019-03-23T12:13:26.833Z,21.68
2019-03-23T12:14:26.815Z,21.80
2019-03-23T12:15:26.805Z,21.82
2019-03-23T12:16:26.819Z,21.84
2019-03-23T12:17:26.787Z,21.84
2019-03-23T12:18:26.775Z,21.82
2019-03-23T12:19:26.760Z,21.92
2019-03-23T12:20:26.775Z,21.91
2019-03-23T12:21:26.772Z,22.02
2019-03-23T12:22:26.728Z,21.92
2019-03-23T12:23:26.715Z,21.96
2019-03-23T12:24:26.728Z,21.90
2019-03-23T12:25:26.706Z,21.82
2019-03-23T12:26:26.704Z,21.96
2019-03-23T12:27:26.682Z,21.90
2019-03-23T12:28:26.710Z,22.02
2019-03-23T12:29:26.664Z,22.07
2019-03-23T12:30:26.642Z,22.09
2019-03-23T12:31:26.632Z,21.96
2019-03-23T12:32:26.651Z,21.96
2019-03-23T12:33:26.664Z,21.91
2019-03-23T12:34:26.605Z,21.94
2019-03-23T12:35:26.606Z,22.02
2019-03-23T12:36:26.574Z,22.14
2019-03-23T12:37:26.576Z,22.20
2019-03-23T12:38:26.585Z,22.25
2019-03-23T12:39:26.566Z,22.35
2019-03-23T12:40:26.554Z,22.31
2019-03-23T12:41:26.553Z,22.33
2019-03-23T12:42:26.508Z,22.14
2019-03-23T12:43:26.512Z,22.00
2019-03-23T12:44:26.507Z,21.96
2019-03-23T12:45:26.478Z,21.88
2019-03-23T12:46:26.465Z,21.83
2019-03-23T12:47:26.461Z,21.82
2019-03-23T12:48:26.471Z,21.82
2019-03-23T12:49:26.446Z,21.80
2019-03-23T12:50:26.432Z,21.65
2019-03-23T12:51:26.430Z,21.80
2019-03-23T12:52:26.421Z,21.79
2019-03-23T12:53:26.398Z,21.82
2019-03-23T12:54:26.402Z,21.96
2019-03-23T12:55:26.373Z,22.02
2019-03-23T12:56:26.361Z,22.14
2019-03-23T12:57:26.402Z,22.17
2019-03-23T12:58:26.346Z,22.27
2019-03-23T12:59:26.350Z,22.25
2019-03-23T13:00:26.320Z,22.27
2019-03-23T13:01:26.311Z,22.31
2019-03-23T13:02:26.299Z,22.35
2019-03-23T13:03:26.287Z,22.36
2019-03-23T13:04:26.317Z,22.40
2019-03-23T13:05:26.292Z,22.36
2019-03-23T13:06:26.250Z,22.33
2019-03-23T13:07:26.241Z,22.33